Time;durP1;ratioP1;P1;durP2;ratioP2;P2;SDS_P1;SDS_P2;PMS_P1;PMS_P2;Temp;Humidity;BMP_temperature;BMP_pressure;BME280_temperature;BME280_humidity;BME280_pressure;Samples;Min_cycle;Max_cycle;Signal;HPM_P1;HPM_P2
2023/09/25 00:00:31;;;;;;;4.38;1.70;;;;;;;22.64;100.00;101843.84;5019299;28;20546;-46
2023/09/25 00:02:59;;;;;;;3.80;1.60;;;;;;;22.59;100.00;101839.59;5016340;28;20496;-46
2023/09/25 00:05:28;;;;;;;3.03;1.40;;;;;;;22.61;100.00;101836.28;5014342;28;20064;-47
2023/09/25 00:07:55;;;;;;;5.13;1.67;;;;;;;22.59;100.00;101833.94;5019315;28;20041;-45
2023/09/25 00:10:22;;;;;;;4.50;1.88;;;;;;;22.61;100.00;101827.78;5016844;28;20125;-49
2023/09/25 00:12:49;;;;;;;5.63;2.13;;;;;;;22.58;100.00;101828.72;5010679;28;20107;-46
2023/09/25 00:15:15;;;;;;;4.72;1.63;;;;;;;22.57;100.00;101827.94;5021753;28;20049;-45
2023/09/25 00:17:43;;;;;;;4.82;1.95;;;;;;;22.56;100.00;101826.38;5025912;28;20064;-46
2023/09/25 00:20:10;;;;;;;3.15;1.70;;;;;;;22.61;100.00;101828.56;5010125;28;20046;-49
2023/09/25 00:22:39;;;;;;;4.45;1.80;;;;;;;22.60;100.00;101834.69;5011466;28;20042;-45
2023/09/25 00:25:07;;;;;;;4.32;1.70;;;;;;;22.63;100.00;101833.75;5017671;28;20049;-45
2023/09/25 00:27:34;;;;;;;5.82;1.77;;;;;;;22.64;100.00;101830.44;5009473;28;20058;-46
2023/09/25 00:30:04;;;;;;;2.05;1.33;;;;;;;22.61;100.00;101831.38;5017267;28;20076;-47
2023/09/25 00:32:30;;;;;;;2.90;1.30;;;;;;;22.63;100.00;101833.75;5008801;28;20054;-46
2023/09/25 00:34:58;;;;;;;2.53;1.38;;;;;;;22.61;100.00;101825.72;5008427;28;20520;-46
2023/09/25 00:37:25;;;;;;;3.15;1.40;;;;;;;22.61;100.00;101839.13;5011441;28;20050;-50
2023/09/25 00:39:52;;;;;;;2.70;1.42;;;;;;;22.63;100.00;101836.59;5011005;28;20096;-47
2023/09/25 00:42:18;;;;;;;5.88;1.77;;;;;;;22.61;100.00;101837.06;5014165;28;20550;-50
2023/09/25 00:44:45;;;;;;;1.98;1.00;;;;;;;22.64;100.00;101843.84;5009584;28;20050;-44
2023/09/25 00:47:12;;;;;;;2.80;1.52;;;;;;;22.58;100.00;101831.56;5023232;28;20077;-52
2023/09/25 00:49:38;;;;;;;5.43;1.80;;;;;;;22.58;100.00;101846.50;5008538;28;20073;-50
2023/09/25 00:52:06;;;;;;;4.20;1.67;;;;;;;22.57;100.00;101846.97;5022341;28;20562;-48
2023/09/25 00:54:33;;;;;;;2.78;1.60;;;;;;;22.52;100.00;101836.28;5009097;28;20106;-48
2023/09/25 00:57:08;;;;;;;1.92;1.20;;;;;;;22.58;100.00;101840.06;5015750;28;20049;-45
2023/09/25 00:59:39;;;;;;;2.15;1.33;;;;;;;22.56;100.00;101842.56;5008404;28;20042;-49
2023/09/25 01:02:06;;;;;;;2.30;1.40;;;;;;;22.59;100.00;101844.47;5013592;28;20061;-45
2023/09/25 01:04:33;;;;;;;2.83;1.48;;;;;;;22.59;100.00;101842.44;5009686;28;20103;-49
2023/09/25 01:07:00;;;;;;;2.33;1.38;;;;;;;22.60;100.00;101843.19;5009413;28;20500;-47
2023/09/25 01:09:27;;;;;;;2.70;1.50;;;;;;;22.61;100.00;101839.13;5025510;28;20392;-49
2023/09/25 01:11:54;;;;;;;2.28;1.50;;;;;;;22.61;100.00;101844.78;5031914;28;20055;-49
2023/09/25 01:14:20;;;;;;;2.42;1.40;;;;;;;22.60;100.00;101831.88;5026426;28;20129;-48
2023/09/25 01:16:47;;;;;;;3.72;1.35;;;;;;;22.63;100.00;101834.53;5023865;28;20107;-46
2023/09/25 01:19:14;;;;;;;5.50;1.52;;;;;;;22.64;100.00;101829.69;5012153;28;20520;-54
2023/09/25 01:21:46;;;;;;;6.65;1.45;;;;;;;22.62;100.00;101832.19;5008542;28;20049;-46
2023/09/25 01:24:13;;;;;;;3.65;1.48;;;;;;;22.63;100.00;101830.91;5008496;28;20058;-48
2023/09/25 01:26:40;;;;;;;3.15;1.70;;;;;;;22.61;100.00;101833.44;5008184;28;20496;-48
2023/09/25 01:29:06;;;;;;;3.42;1.30;;;;;;;22.58;100.00;101829.50;5010510;28;20061;-49
2023/09/25 01:31:33;;;;;;;2.45;1.30;;;;;;;22.62;100.00;101826.50;5012695;28;20092;-47
2023/09/25 01:34:00;;;;;;;2.80;1.58;;;;;;;22.56;100.00;101831.25;5021047;28;20104;-50
2023/09/25 01:36:26;;;;;;;2.22;1.30;;;;;;;22.55;100.00;101826.84;5013676;28;20061;-45
2023/09/25 01:38:53;;;;;;;2.92;1.25;;;;;;;22.56;100.00;101839.75;5012497;28;20087;-49
2023/09/25 01:41:19;;;;;;;3.55;1.23;;;;;;;22.53;100.00;101835.81;5013662;28;20045;-45
2023/09/25 01:43:46;;;;;;;1.88;1.27;;;;;;;22.57;100.00;101835.63;5017668;28;20053;-49
2023/09/25 01:46:12;;;;;;;2.78;1.50;;;;;;;22.58;100.00;101834.41;5019496;28;20062;-49
2023/09/25 01:48:39;;;;;;;1.83;1.10;;;;;;;22.67;100.00;101843.66;5012192;28;20132;-49
2023/09/25 01:51:12;;;;;;;2.65;1.60;;;;;;;22.67;100.00;101835.16;5013351;28;20120;-47
2023/09/25 01:53:38;;;;;;;3.15;1.02;;;;;;;22.63;100.00;101837.38;5012074;28;20120;-45
2023/09/25 01:56:12;;;;;;;1.42;1.00;;;;;;;22.67;100.00;101837.19;5016654;28;20049;-47
2023/09/25 01:58:43;;;;;;;3.80;1.50;;;;;;;22.66;100.00;101835.63;5012107;28;20120;-46
2023/09/25 02:01:10;;;;;;;4.07;1.50;;;;;;;22.65;100.00;101842.56;5017423;28;20132;-47
2023/09/25 02:03:36;;;;;;;2.17;1.27;;;;;;;22.61;100.00;101839.13;5022418;28;20104;-50
2023/09/25 02:06:04;;;;;;;2.85;1.45;;;;;;;22.62;100.00;101835.03;5014191;28;20228;-46
2023/09/25 02:08:31;;;;;;;3.35;1.25;;;;;;;22.64;100.00;101841.00;5017719;28;20364;-48
2023/09/25 02:10:58;;;;;;;3.75;1.38;;;;;;;22.61;100.00;101842.72;5017434;28;20050;-46
2023/09/25 02:13:25;;;;;;;2.92;1.20;;;;;;;22.63;100.00;101836.59;5011306;28;20540;-50
2023/09/25 02:15:51;;;;;;;3.22;1.33;;;;;;;22.61;100.00;101837.06;5016430;28;20507;-46
2023/09/25 02:18:18;;;;;;;3.38;1.20;;;;;;;22.61;100.00;101833.44;5011358;28;20074;-46
2023/09/25 02:20:46;;;;;;;1.75;1.20;;;;;;;22.58;100.00;101840.06;5011282;28;20046;-46
2023/09/25 02:23:12;;;;;;;2.65;1.35;;;;;;;22.60;100.00;101840.38;5025149;28;20402;-48
2023/09/25 02:25:39;;;;;;;2.28;1.35;;;;;;;22.59;100.00;101842.44;5010080;28;20512;-47
2023/09/25 02:28:06;;;;;;;2.17;1.33;;;;;;;22.62;100.00;101843.53;5011479;28;20050;-47
2023/09/25 02:30:33;;;;;;;3.08;1.15;;;;;;;22.56;100.00;101842.56;5015570;28;20057;-45
2023/09/25 02:33:00;;;;;;;3.33;1.27;;;;;;;22.55;100.00;101838.97;5011355;28;20061;-46
2023/09/25 02:35:27;;;;;;;3.20;1.30;;;;;;;22.57;100.00;101839.28;5010737;28;20046;-46
2023/09/25 02:37:54;;;;;;;2.65;1.30;;;;;;;22.56;100.00;101837.72;5016397;28;20053;-47
2023/09/25 02:40:20;;;;;;;4.15;1.40;;;;;;;22.58;100.00;101851.41;5011213;28;20050;-46
2023/09/25 02:42:47;;;;;;;1.30;1.00;;;;;;;22.57;100.00;101838.47;5014097;28;20137;-44
2023/09/25 02:45:14;;;;;;;2.55;1.48;;;;;;;22.56;100.00;101846.22;5010338;28;20060;-50
2023/09/25 02:47:41;;;;;;;1.50;1.20;;;;;;;22.56;100.00;101853.91;5033479;28;20524;-46
2023/09/25 02:50:09;;;;;;;2.45;1.48;;;;;;;22.52;100.00;101847.63;5010862;28;20522;-48
2023/09/25 02:52:36;;;;;;;4.50;1.20;;;;;;;22.55;100.00;101853.16;5014689;28;20042;-46
2023/09/25 02:55:03;;;;;;;2.80;1.30;;;;;;;22.55;100.00;101846.69;5010719;28;20107;-48
2023/09/25 02:57:30;;;;;;;3.78;1.73;;;;;;;22.55;100.00;101853.16;5010975;28;20053;-51
2023/09/25 02:59:56;;;;;;;3.40;1.40;;;;;;;22.55;100.00;101852.34;5010548;28;20057;-45
2023/09/25 03:02:25;;;;;;;3.03;1.23;;;;;;;22.52;100.00;101850.47;5013591;28;20045;-51
2023/09/25 03:04:52;;;;;;;2.10;1.20;;;;;;;22.54;100.00;101847.94;5010179;28;20112;-45
2023/09/25 03:07:18;;;;;;;2.83;1.40;;;;;;;22.52;100.00;101839.91;5016116;28;20104;-47
2023/09/25 03:09:45;;;;;;;2.05;1.23;;;;;;;22.54;100.00;101850.78;5024950;28;20053;-46
2023/09/25 03:12:11;;;;;;;3.38;1.38;;;;;;;22.49;100.00;101851.41;5021164;28;20061;-46
2023/09/25 03:14:39;;;;;;;3.03;1.27;;;;;;;22.50;100.00;101855.81;5013467;28;20045;-45
2023/09/25 03:17:05;;;;;;;1.65;1.17;;;;;;;22.48;100.00;101850.59;5025083;28;20058;-47
2023/09/25 03:19:35;;;;;;;2.67;1.42;;;;;;;22.47;100.00;101851.88;5015494;28;20504;-44
2023/09/25 03:22:02;;;;;;;2.42;1.30;;;;;;;22.50;100.00;101856.59;5019557;28;20053;-45
2023/09/25 03:24:30;;;;;;;4.20;1.20;;;;;;;22.48;100.00;101861.16;5010008;28;20080;-46
2023/09/25 03:26:56;;;;;;;1.83;1.23;;;;;;;22.49;100.00;101865.56;5010290;28;20058;-46
2023/09/25 03:29:23;;;;;;;2.63;1.17;;;;;;;22.48;100.00;101870.44;5010660;28;20491;-48
2023/09/25 03:31:50;;;;;;;2.45;1.50;;;;;;;22.48;100.00;101876.09;5010286;28;20065;-48
2023/09/25 03:34:16;;;;;;;1.92;1.23;;;;;;;22.46;100.00;101869.34;5017900;28;20050;-45
2023/09/25 03:36:43;;;;;;;2.20;1.25;;;;;;;22.46;100.00;101867.31;5010479;28;20053;-48
2023/09/25 03:39:10;;;;;;;2.95;1.33;;;;;;;22.46;100.00;101872.97;5019530;28;20046;-46
2023/09/25 03:41:36;;;;;;;2.67;1.50;;;;;;;22.45;100.00;101871.41;5009752;28;20096;-48
2023/09/25 03:44:04;;;;;;;1.95;1.25;;;;;;;22.43;100.00;101870.28;5011731;28;20092;-49
2023/09/25 03:46:30;;;;;;;1.73;1.13;;;;;;;22.44;100.00;101869.06;5030600;28;20045;-45
2023/09/25 03:48:57;;;;;;;2.75;1.27;;;;;;;22.43;100.00;101867.47;5017251;28;20428;-43
2023/09/25 03:51:24;;;;;;;4.35;1.38;;;;;;;22.43;100.00;101873.91;5011779;28;20041;-47
2023/09/25 03:53:50;;;;;;;2.28;1.35;;;;;;;22.44;100.00;101869.06;5009882;28;20050;-46
2023/09/25 03:56:20;;;;;;;2.17;1.10;;;;;;;22.42;100.00;101875.19;5009302;28;20565;-48
2023/09/25 03:58:46;;;;;;;2.40;1.38;;;;;;;22.43;100.00;101867.47;5013851;28;20503;-45
2023/09/25 04:01:13;;;;;;;3.28;1.40;;;;;;;22.46;100.00;101872.19;5012897;28;20563;-50
2023/09/25 04:03:40;;;;;;;2.80;1.48;;;;;;;22.44;100.00;101874.72;5017357;28;20045;-46
2023/09/25 04:06:07;;;;;;;3.38;1.05;;;;;;;22.42;100.00;101877.22;5008964;28;20133;-45
2023/09/25 04:08:34;;;;;;;1.83;1.20;;;;;;;22.41;100.00;101876.44;5014736;28;20511;-48
2023/09/25 04:11:00;;;;;;;1.90;1.08;;;;;;;22.42;100.00;101880.06;5009309;28;20072;-46
2023/09/25 04:13:27;;;;;;;2.83;1.23;;;;;;;22.40;100.00;101874.06;5009291;28;20500;-46
2023/09/25 04:15:54;;;;;;;2.63;1.42;;;;;;;22.42;100.00;101877.22;5016608;28;20079;-48
2023/09/25 04:18:21;;;;;;;4.40;1.42;;;;;;;22.41;100.00;101878.50;5017728;28;20132;-46
2023/09/25 04:20:49;;;;;;;2.08;1.08;;;;;;;22.39;100.00;101889.50;5010011;28;20050;-46
2023/09/25 04:23:16;;;;;;;3.60;1.33;;;;;;;22.40;100.00;101876.91;5009112;28;20571;-47
2023/09/25 04:25:43;;;;;;;2.88;1.38;;;;;;;22.39;100.00;101878.16;5009038;28;20128;-48
2023/09/25 04:28:11;;;;;;;2.53;1.40;;;;;;;22.39;100.00;101872.50;5009602;28;20467;-47
2023/09/25 04:30:38;;;;;;;3.25;1.30;;;;;;;22.40;100.00;101885.41;5018404;28;20053;-46
2023/09/25 04:33:06;;;;;;;4.70;1.45;;;;;;;22.40;100.00;101874.06;5011451;28;20058;-47
2023/09/25 04:35:33;;;;;;;4.45;1.10;;;;;;;22.38;100.00;101871.72;5009940;28;20068;-48
2023/09/25 04:37:59;;;;;;;2.42;1.20;;;;;;;22.38;100.00;101874.56;5010569;28;20504;-46
2023/09/25 04:40:30;;;;;;;2.92;1.40;;;;;;;22.37;100.00;101875.03;5009145;28;20085;-48
2023/09/25 04:42:58;;;;;;;6.82;1.50;;;;;;;22.37;100.00;101866.53;5014503;28;20136;-46
2023/09/25 04:45:24;;;;;;;3.45;1.25;;;;;;;22.39;100.00;101867.63;5009725;28;20073;-48
2023/09/25 04:47:52;;;;;;;2.80;1.40;;;;;;;22.39;100.00;101870.47;5020279;28;20049;-49
2023/09/25 04:50:20;;;;;;;3.88;1.40;;;;;;;22.38;100.00;101870.94;5009240;28;20077;-45
2023/09/25 04:52:46;;;;;;;5.03;1.50;;;;;;;22.37;100.00;101877.88;5017043;28;20065;-49
2023/09/25 04:55:13;;;;;;;2.47;1.30;;;;;;;22.36;100.00;101873.44;5012257;28;20048;-45
2023/09/25 04:57:43;;;;;;;1.83;0.98;;;;;;;22.37;100.00;101875.03;5009275;28;20048;-46
2023/09/25 05:02:45;;;;;;;1.30;1.13;;;;;;;22.34;100.00;101870.31;5008872;28;20104;-48
2023/09/25 05:05:12;;;;;;;2.25;1.30;;;;;;;22.32;100.00;101867.94;5008647;28;20094;-48
2023/09/25 05:07:45;;;;;;;2.22;1.20;;;;;;;22.30;100.00;101878.16;5019441;28;20155;-46
2023/09/25 05:10:13;;;;;;;2.63;1.45;;;;;;;22.30;100.00;101878.16;5016024;28;20065;-48
2023/09/25 05:12:42;;;;;;;2.47;1.27;;;;;;;22.34;100.00;101875.97;5017354;28;20045;-46
2023/09/25 05:15:10;;;;;;;1.77;1.23;;;;;;;22.34;100.00;101873.13;5011823;28;20053;-47
2023/09/25 05:17:38;;;;;;;2.08;1.20;;;;;;;22.33;100.00;101878.00;5025322;28;20140;-45
2023/09/25 05:20:15;;;;;;;2.38;1.08;;;;;;;22.35;100.00;101871.88;5012339;28;20053;-45
2023/09/25 05:22:50;;;;;;;3.28;1.20;;;;;;;22.35;100.00;101872.66;5012553;28;20100;-47
2023/09/25 05:25:18;;;;;;;1.08;0.95;;;;;;;22.35;100.00;101871.88;5012064;28;20058;-46
2023/09/25 05:27:47;;;;;;;2.05;1.15;;;;;;;22.34;100.00;101868.25;5012688;28;20053;-47
2023/09/25 05:30:17;;;;;;;1.60;1.00;;;;;;;22.33;100.00;101866.69;5013234;28;20045;-49
2023/09/25 05:32:49;;;;;;;2.63;1.23;;;;;;;22.33;100.00;101863.84;5013261;28;20084;-49
2023/09/25 05:35:17;;;;;;;2.05;1.25;;;;;;;22.33;100.00;101868.72;5012335;28;20072;-50
2023/09/25 05:37:45;;;;;;;2.05;1.20;;;;;;;22.34;100.00;101861.81;5016816;28;20064;-45
2023/09/25 05:40:13;;;;;;;2.22;1.30;;;;;;;22.34;100.00;101856.13;5016374;28;20070;-49
2023/09/25 05:42:42;;;;;;;2.95;1.40;;;;;;;22.34;100.00;101861.81;5012317;28;20048;-47
2023/09/25 05:45:11;;;;;;;2.47;1.17;;;;;;;22.34;100.00;101868.25;5026585;28;20471;-47
2023/09/25 05:47:38;;;;;;;1.30;1.17;;;;;;;22.34;100.00;101865.41;5023774;28;20496;-48
2023/09/25 05:50:08;;;;;;;3.60;1.30;;;;;;;22.34;100.00;101864.63;5010575;28;20049;-48
2023/09/25 05:52:37;;;;;;;4.88;1.25;;;;;;;22.34;100.00;101864.63;5012261;28;20037;-48
2023/09/25 05:55:06;;;;;;;1.42;1.10;;;;;;;22.32;100.00;101867.16;5015257;28;20048;-48
2023/09/25 05:57:37;;;;;;;2.13;1.30;;;;;;;22.31;100.00;101865.59;5017485;28;20057;-46
2023/09/25 06:00:13;;;;;;;2.35;1.30;;;;;;;22.32;100.00;101867.94;5011899;28;20053;-48
2023/09/25 06:02:41;;;;;;;2.67;1.38;;;;;;;22.34;100.00;101867.47;5011910;28;20049;-49
2023/09/25 06:05:09;;;;;;;2.97;1.33;;;;;;;22.32;100.00;101884.16;5011464;28;20049;-47
2023/09/25 06:07:36;;;;;;;3.70;1.20;;;;;;;22.33;100.00;101872.34;5014062;28;20058;-49
2023/09/25 06:10:04;;;;;;;1.92;1.00;;;;;;;22.32;100.00;101867.94;5012082;28;20136;-47
2023/09/25 06:12:31;;;;;;;1.83;1.13;;;;;;;22.30;100.00;101870.44;5021853;28;20050;-49
2023/09/25 06:14:58;;;;;;;2.20;1.17;;;;;;;22.30;100.00;101864.78;5027247;28;20144;-47
2023/09/25 06:17:26;;;;;;;1.95;1.30;;;;;;;22.31;100.00;101860.69;5023158;28;20142;-47
2023/09/25 06:19:54;;;;;;;2.70;1.25;;;;;;;22.33;100.00;101863.84;5023275;28;20057;-50
2023/09/25 06:22:21;;;;;;;5.80;2.40;;;;;;;22.46;100.00;101867.31;5010929;28;20084;-47
2023/09/25 06:24:51;;;;;;;2.75;1.77;;;;;;;22.42;100.00;101877.22;5020838;28;20145;-48
2023/09/25 06:27:17;;;;;;;5.15;1.60;;;;;;;22.44;100.00;101869.81;5012526;28;20069;-46
2023/09/25 06:29:44;;;;;;;2.72;1.58;;;;;;;22.51;100.00;101868.72;5018894;28;20068;-48
2023/09/25 06:32:11;;;;;;;6.15;1.73;;;;;;;22.51;100.00;101869.50;5023026;28;20076;-46
2023/09/25 06:34:39;;;;;;;4.72;1.60;;;;;;;22.51;100.00;101871.56;5024542;28;20574;-47
2023/09/25 06:37:06;;;;;;;6.03;2.47;;;;;;;22.50;100.00;101875.63;5022968;28;20053;-46
2023/09/25 06:39:33;;;;;;;4.80;1.70;;;;;;;22.48;100.00;101870.44;5018812;28;20427;-48
2023/09/25 06:42:00;;;;;;;4.18;1.77;;;;;;;22.47;100.00;101877.38;5016797;28;20042;-47
2023/09/25 06:44:27;;;;;;;6.65;1.80;;;;;;;22.47;100.00;101876.59;5020096;28;20081;-47
2023/09/25 06:46:54;;;;;;;4.38;1.67;;;;;;;22.45;100.00;101882.75;5011281;28;20046;-47
2023/09/25 06:49:22;;;;;;;4.70;1.85;;;;;;;22.45;100.00;101879.13;5015834;28;20462;-48
2023/09/25 06:51:48;;;;;;;6.78;1.92;;;;;;;22.44;100.00;101872.66;5019495;28;20398;-48
2023/09/25 06:54:15;;;;;;;7.07;1.88;;;;;;;22.43;100.00;101878.78;5018954;28;20049;-48
2023/09/25 06:56:42;;;;;;;3.92;1.88;;;;;;;22.41;100.00;101882.09;5017993;28;20053;-46
2023/09/25 06:59:09;;;;;;;5.22;1.77;;;;;;;22.40;100.00;101874.06;5013652;28;20136;-49
2023/09/25 07:01:35;;;;;;;4.32;1.73;;;;;;;22.39;100.00;101878.97;5011642;28;20050;-46
2023/09/25 07:04:02;;;;;;;4.57;1.75;;;;;;;22.39;100.00;101878.16;5017063;28;20141;-47
2023/09/25 07:06:30;;;;;;;4.18;1.63;;;;;;;22.39;100.00;101881.00;5011821;28;20057;-47
2023/09/25 07:08:57;;;;;;;5.32;2.17;;;;;;;22.39;100.00;101875.31;5017124;28;20065;-48
2023/09/25 07:11:23;;;;;;;5.47;2.08;;;;;;;22.38;100.00;101882.25;5012744;28;20585;-44
2023/09/25 07:13:50;;;;;;;6.15;1.85;;;;;;;22.37;100.00;101872.19;5008930;28;20054;-48
2023/09/25 07:16:17;;;;;;;5.78;2.00;;;;;;;22.35;100.00;101869.84;5018105;28;20140;-46
2023/09/25 07:18:46;;;;;;;7.97;1.90;;;;;;;22.36;100.00;101864.94;5010214;28;20096;-47
2023/09/25 07:21:13;;;;;;;4.22;1.80;;;;;;;22.35;100.00;101867.00;5012376;28;20057;-46
2023/09/25 07:23:39;;;;;;;6.43;2.10;;;;;;;22.37;100.00;101869.38;5011553;28;20042;-48
2023/09/25 07:26:07;;;;;;;4.13;1.63;;;;;;;22.36;100.00;101871.41;5008558;28;20160;-46
2023/09/25 07:28:35;;;;;;;3.20;1.73;;;;;;;22.36;100.00;101859.28;5009070;28;20807;-46
2023/09/25 07:31:02;;;;;;;5.68;1.67;;;;;;;22.39;100.00;101866.84;5009026;28;20054;-47
2023/09/25 07:33:30;;;;;;;3.80;1.70;;;;;;;22.43;100.00;101867.47;5010193;28;20085;-46
2023/09/25 07:35:57;;;;;;;4.15;1.85;;;;;;;22.43;100.00;101873.91;5009739;28;20077;-46
2023/09/25 07:38:24;;;;;;;3.50;1.40;;;;;;;22.47;100.00;101879.44;5009358;28;20164;-46
2023/09/25 07:40:51;;;;;;;3.85;1.40;;;;;;;22.46;100.00;101872.19;5009212;28;20108;-46
2023/09/25 07:43:29;;;;;;;5.47;1.95;;;;;;;22.45;100.00;101877.06;5009227;28;20524;-45
2023/09/25 07:46:20;;;;;;;3.67;1.17;;;;;;;22.45;100.00;101865.75;5011135;28;20817;-47
2023/09/25 07:48:47;;;;;;;4.60;1.60;;;;;;;22.41;100.00;101867.91;5020923;28;20077;-46
2023/09/25 07:51:14;;;;;;;3.40;1.58;;;;;;;22.34;100.00;101871.06;5017265;28;20042;-46
2023/09/25 07:53:44;;;;;;;7.15;1.70;;;;;;;22.22;100.00;101871.19;5017110;28;20041;-46
2023/09/25 07:56:12;;;;;;;5.93;1.77;;;;;;;22.14;100.00;101873.53;5021260;28;20049;-47
2023/09/25 07:58:39;;;;;;;4.90;1.55;;;;;;;22.17;100.00;101866.16;5017613;28;20554;-46
2023/09/25 08:01:08;;;;;;;3.40;1.70;;;;;;;22.22;100.00;101871.19;5016382;28;20053;-45
2023/09/25 08:03:37;;;;;;;6.20;1.70;;;;;;;22.23;100.00;101870.72;5023358;28;20123;-46
2023/09/25 08:06:05;;;;;;;5.32;1.85;;;;;;;22.23;100.00;101872.75;5013641;28;20726;-46
2023/09/25 08:08:35;;;;;;;8.15;2.05;;;;;;;22.23;100.00;101867.91;5012678;28;20049;-46
2023/09/25 08:11:02;;;;;;;5.80;1.77;;;;;;;22.25;100.00;101873.88;5009036;28;20069;-46
2023/09/25 08:13:29;;;;;;;8.38;2.15;;;;;;;22.33;100.00;101868.72;5012712;28;20065;-48
2023/09/25 08:16:05;;;;;;;5.57;1.70;;;;;;;22.35;100.00;101875.50;5017982;28;20874;-48
2023/09/25 08:18:32;;;;;;;4.80;1.45;;;;;;;22.38;100.00;101876.59;5022868;28;20060;-46
2023/09/25 08:20:59;;;;;;;5.47;1.77;;;;;;;22.29;100.00;101873.72;5017346;28;20124;-47
2023/09/25 08:23:26;;;;;;;4.45;1.80;;;;;;;22.30;100.00;101880.97;5016790;28;20050;-46
2023/09/25 08:25:53;;;;;;;3.65;1.63;;;;;;;22.27;100.00;101870.59;5014701;28;20192;-42
2023/09/25 08:28:20;;;;;;;5.43;1.90;;;;;;;22.32;100.00;101870.78;5024161;28;21733;-47
2023/09/25 08:30:47;;;;;;;5.63;1.80;;;;;;;22.32;100.00;101867.94;5012069;28;20507;-46
2023/09/25 08:33:15;;;;;;;5.57;1.70;;;;;;;22.33;100.00;101863.03;5009228;28;20396;-46
2023/09/25 08:35:43;;;;;;;6.15;1.65;;;;;;;22.35;100.00;101857.72;5015360;28;20534;-46
2023/09/25 08:38:10;;;;;;;7.35;1.90;;;;;;;22.37;100.00;101858.81;5011902;28;20049;-45
2023/09/25 08:40:43;;;;;;;9.02;1.77;;;;;;;22.33;100.00;101863.84;5012306;28;20504;-47
2023/09/25 08:43:10;;;;;;;10.32;2.45;;;;;;;22.34;100.00;101867.47;5011941;28;20081;-47
2023/09/25 08:45:48;;;;;;;8.25;1.80;;;;;;;22.31;100.00;101862.75;5019662;28;20056;-46
2023/09/25 08:48:17;;;;;;;5.95;1.80;;;;;;;22.32;100.00;101862.28;5018873;28;20055;-47
2023/09/25 08:50:45;;;;;;;3.78;1.65;;;;;;;22.31;100.00;101863.50;5011918;28;20065;-47
2023/09/25 08:53:11;;;;;;;3.00;1.50;;;;;;;22.31;100.00;101855.00;5008775;28;20104;-48
2023/09/25 08:55:38;;;;;;;5.28;1.88;;;;;;;22.33;100.00;101861.00;5007157;28;20046;-47
2023/09/25 08:58:08;;;;;;;4.10;1.63;;;;;;;22.34;100.00;101861.81;5008487;28;20054;-47
2023/09/25 09:00:35;;;;;;;5.38;2.03;;;;;;;22.32;100.00;101861.47;5012125;28;20072;-45
2023/09/25 09:03:02;;;;;;;5.93;1.95;;;;;;;22.32;100.00;101864.31;5013067;28;20050;-47
2023/09/25 09:05:29;;;;;;;3.95;1.67;;;;;;;22.32;100.00;101867.16;5008925;28;20053;-46
2023/09/25 09:07:56;;;;;;;5.38;1.60;;;;;;;22.31;100.00;101871.25;5009482;28;20056;-46
2023/09/25 09:10:23;;;;;;;7.88;1.70;;;;;;;22.36;100.00;101870.59;5019178;28;20100;-46
2023/09/25 09:12:53;;;;;;;4.55;1.52;;;;;;;22.27;100.00;101870.59;5009005;28;20535;-47
2023/09/25 09:15:30;;;;;;;5.93;2.13;;;;;;;22.20;100.00;101870.91;5014166;28;20067;-48
2023/09/25 09:17:57;;;;;;;6.70;2.00;;;;;;;22.17;100.00;101866.16;5028367;28;20132;-48
2023/09/25 09:20:36;;;;;;;3.88;1.67;;;;;;;22.16;100.00;101859.72;5020190;28;20571;-47
2023/09/25 09:23:03;;;;;;;3.53;1.60;;;;;;;22.13;100.00;101869.94;5016453;28;20042;-46
2023/09/25 09:25:31;;;;;;;7.68;1.85;;;;;;;22.09;100.00;101869.31;5023753;28;20058;-47
2023/09/25 09:27:59;;;;;;;3.53;1.60;;;;;;;22.12;100.00;101864.75;5018374;28;20054;-45
2023/09/25 09:30:26;;;;;;;5.40;1.63;;;;;;;22.15;100.00;101866.63;5009720;28;20074;-45
2023/09/25 09:32:52;;;;;;;3.65;2.10;;;;;;;22.17;100.00;101861.28;5009279;28;20539;-49
2023/09/25 09:35:25;;;;;;;4.82;1.83;;;;;;;22.24;100.00;101863.03;5014617;28;20045;-46
2023/09/25 09:37:52;;;;;;;3.72;1.70;;;;;;;22.30;100.00;101859.13;5008317;28;20050;-46
2023/09/25 09:40:21;;;;;;;9.98;2.15;;;;;;;22.30;100.00;101858.31;5010854;28;20088;-46
2023/09/25 09:42:51;;;;;;;7.32;1.73;;;;;;;22.30;100.00;101849.81;5008403;28;20045;-46
2023/09/25 09:45:19;;;;;;;3.63;1.55;;;;;;;22.30;100.00;101847.78;5019329;28;20108;-46
2023/09/25 09:47:50;;;;;;;3.90;1.70;;;;;;;22.32;100.00;101855.81;5008432;28;20084;-45
2023/09/25 09:50:28;;;;;;;4.03;1.33;;;;;;;22.33;100.00;101854.53;5007682;28;20095;-46
2023/09/25 09:52:56;;;;;;;4.57;1.77;;;;;;;22.32;100.00;101850.94;5017231;28;20042;-47
2023/09/25 09:55:23;;;;;;;6.30;1.65;;;;;;;22.33;100.00;101854.53;5010575;28;20049;-46
2023/09/25 09:57:50;;;;;;;3.88;1.33;;;;;;;22.33;100.00;101846.84;5008448;28;20081;-46
2023/09/25 10:00:17;;;;;;;6.03;1.83;;;;;;;22.34;100.00;101844.81;5007812;28;20642;-46
2023/09/25 10:02:45;;;;;;;5.03;1.98;;;;;;;22.33;100.00;101838.34;5008648;28;20057;-46
2023/09/25 10:05:13;;;;;;;3.88;1.60;;;;;;;22.30;100.00;101838.50;5011075;28;20144;-46
2023/09/25 10:08:06;;;;;;;4.80;1.52;;;;;;;22.25;100.00;101831.41;5011917;28;20164;-47
2023/09/25 10:10:35;;;;;;;4.28;1.70;;;;;;;22.26;100.00;101824.47;5011089;28;20045;-46
2023/09/25 10:13:06;;;;;;;3.80;1.60;;;;;;;22.26;100.00;101829.34;5011494;28;20050;-46
2023/09/25 10:15:34;;;;;;;4.68;1.77;;;;;;;22.25;100.00;101828.56;5014441;28;20499;-46
2023/09/25 10:18:01;;;;;;;5.15;1.65;;;;;;;22.24;100.00;101826.22;5022461;28;20050;-47
2023/09/25 10:20:31;;;;;;;5.03;2.00;;;;;;;22.27;100.00;101825.25;5011237;28;20479;-45
2023/09/25 10:23:02;;;;;;;5.60;1.50;;;;;;;22.25;100.00;101827.78;5011369;28;20049;-45
2023/09/25 10:25:32;;;;;;;4.18;1.50;;;;;;;22.25;100.00;101822.91;5019178;28;20104;-45
2023/09/25 10:27:58;;;;;;;3.10;1.65;;;;;;;22.25;100.00;101822.09;5011435;28;20504;-47
2023/09/25 10:30:26;;;;;;;5.15;1.80;;;;;;;22.25;100.00;101827.78;5013832;28;20132;-46
2023/09/25 10:32:55;;;;;;;5.13;1.55;;;;;;;22.25;100.00;101810.78;5011475;28;20045;-47
2023/09/25 10:35:43;;;;;;;4.40;1.95;;;;;;;22.25;100.00;101814.41;5022484;28;20049;-44
2023/09/25 10:38:26;;;;;;;4.82;1.95;;;;;;;22.23;100.00;101807.63;5010584;28;20054;-47
2023/09/25 10:40:59;;;;;;;5.07;1.92;;;;;;;22.24;100.00;101807.16;4972834;28;20559;-46
2023/09/25 10:43:26;;;;;;;6.78;2.00;;;;;;;22.24;100.00;101804.31;4969639;28;20110;-46
2023/09/25 10:45:54;;;;;;;7.18;1.88;;;;;;;22.27;100.00;101799.78;4973130;28;20050;-47
2023/09/25 10:48:25;;;;;;;4.35;1.80;;;;;;;22.25;100.00;101800.25;4972079;28;20066;-46
2023/09/25 10:50:52;;;;;;;3.08;1.35;;;;;;;22.22;100.00;101795.53;4968356;28;20082;-47
2023/09/25 10:53:19;;;;;;;3.67;1.63;;;;;;;22.20;100.00;101800.09;4969360;28;20130;-46
2023/09/25 10:55:47;;;;;;;2.83;1.50;;;;;;;22.15;100.00;101799.44;4968485;28;20120;-46
2023/09/25 10:58:14;;;;;;;2.42;1.20;;;;;;;22.17;100.00;101795.38;4975198;28;20049;-48
2023/09/25 11:00:42;;;;;;;4.55;1.40;;;;;;;22.11;100.00;101790.31;5010007;28;20092;-48
2023/09/25 11:03:09;;;;;;;5.55;1.77;;;;;;;22.11;100.00;101795.97;5010479;28;20081;-46
2023/09/25 11:05:38;;;;;;;4.20;1.42;;;;;;;22.15;100.00;101798.66;5010021;28;20060;-48
2023/09/25 11:08:06;;;;;;;3.17;1.48;;;;;;;22.13;100.00;101801.97;5010583;28;20053;-47
2023/09/25 11:10:34;;;;;;;3.42;1.55;;;;;;;22.07;100.00;101789.69;5010329;28;20073;-46
2023/09/25 11:13:02;;;;;;;4.13;1.48;;;;;;;22.11;100.00;101795.97;5009802;28;20531;-46
2023/09/25 11:15:33;;;;;;;3.58;1.48;;;;;;;22.18;100.00;101792.84;5016716;28;20044;-46
2023/09/25 11:18:00;;;;;;;2.22;1.10;;;;;;;22.17;100.00;101799.75;5011034;28;20046;-46
2023/09/25 11:20:29;;;;;;;3.60;1.30;;;;;;;22.20;100.00;101800.84;5010351;28;20120;-45
2023/09/25 11:23:06;;;;;;;2.92;1.48;;;;;;;22.23;100.00;101799.91;5010558;28;20049;-47